sensor_id;sensor_type;location;lat;lon;timestamp;P1;durP1;ratioP1;P2;durP2;ratioP2
51558;SDS011;61650;48.882;2.092;2022-12-08T00:03:32;30.40;;;22.67;;
51558;SDS011;61650;48.882;2.092;2022-12-08T00:05:58;30.90;;;22.83;;
51558;SDS011;61650;48.882;2.092;2022-12-08T00:08:42;36.28;;;23.35;;
51558;SDS011;61650;48.882;2.092;2022-12-08T00:11:26;32.08;;;21.45;;
51558;SDS011;61650;48.882;2.092;2022-12-08T00:13:51;30.83;;;21.53;;
51558;SDS011;61650;48.882;2.092;2022-12-08T00:16:17;30.30;;;21.10;;
51558;SDS011;61650;48.882;2.092;2022-12-08T00:18:43;28.90;;;19.77;;
51558;SDS011;61650;48.882;2.092;2022-12-08T00:21:08;29.60;;;20.40;;
51558;SDS011;61650;48.882;2.092;2022-12-08T00:23:34;31.20;;;20.40;;
51558;SDS011;61650;48.882;2.092;2022-12-08T00:26:03;29.53;;;19.80;;
51558;SDS011;61650;48.882;2.092;2022-12-08T00:28:29;31.52;;;19.88;;
51558;SDS011;61650;48.882;2.092;2022-12-08T00:30:55;27.25;;;19.38;;
51558;SDS011;61650;48.882;2.092;2022-12-08T00:33:21;28.63;;;19.20;;
51558;SDS011;61650;48.882;2.092;2022-12-08T00:35:46;26.83;;;18.53;;
51558;SDS011;61650;48.882;2.092;2022-12-08T00:38:12;28.97;;;18.83;;
51558;SDS011;61650;48.882;2.092;2022-12-08T00:40:42;27.53;;;18.60;;
51558;SDS011;61650;48.882;2.092;2022-12-08T00:43:11;31.40;;;18.75;;
51558;SDS011;61650;48.882;2.092;2022-12-08T00:45:36;33.43;;;19.90;;
51558;SDS011;61650;48.882;2.092;2022-12-08T00:48:02;25.60;;;17.90;;
51558;SDS011;61650;48.882;2.092;2022-12-08T00:50:28;28.00;;;18.97;;
51558;SDS011;61650;48.882;2.092;2022-12-08T00:52:54;32.03;;;19.37;;
51558;SDS011;61650;48.882;2.092;2022-12-08T00:55:19;28.17;;;19.93;;
51558;SDS011;61650;48.882;2.092;2022-12-08T00:57:45;38.87;;;26.10;;
51558;SDS011;61650;48.882;2.092;2022-12-08T01:00:10;39.57;;;23.90;;
51558;SDS011;61650;48.882;2.092;2022-12-08T01:02:36;34.20;;;23.53;;
51558;SDS011;61650;48.882;2.092;2022-12-08T01:05:02;35.10;;;21.10;;
51558;SDS011;61650;48.882;2.092;2022-12-08T01:07:28;40.97;;;24.02;;
51558;SDS011;61650;48.882;2.092;2022-12-08T01:09:54;36.97;;;23.80;;
51558;SDS011;61650;48.882;2.092;2022-12-08T01:12:19;43.00;;;24.53;;
51558;SDS011;61650;48.882;2.092;2022-12-08T01:14:45;36.77;;;23.37;;
51558;SDS011;61650;48.882;2.092;2022-12-08T01:17:10;37.80;;;22.40;;
51558;SDS011;61650;48.882;2.092;2022-12-08T01:19:36;32.70;;;22.57;;
51558;SDS011;61650;48.882;2.092;2022-12-08T01:22:01;35.53;;;22.93;;
51558;SDS011;61650;48.882;2.092;2022-12-08T01:24:27;39.60;;;23.80;;
51558;SDS011;61650;48.882;2.092;2022-12-08T01:26:53;33.77;;;22.20;;
51558;SDS011;61650;48.882;2.092;2022-12-08T01:29:19;33.20;;;22.40;;
51558;SDS011;61650;48.882;2.092;2022-12-08T01:31:44;30.80;;;21.80;;
51558;SDS011;61650;48.882;2.092;2022-12-08T01:34:10;34.90;;;22.83;;
51558;SDS011;61650;48.882;2.092;2022-12-08T01:36:36;37.90;;;23.95;;
51558;SDS011;61650;48.882;2.092;2022-12-08T01:39:03;36.13;;;23.27;;
51558;SDS011;61650;48.882;2.092;2022-12-08T01:41:32;38.08;;;22.98;;
51558;SDS011;61650;48.882;2.092;2022-12-08T01:46:32;39.78;;;25.20;;
51558;SDS011;61650;48.882;2.092;2022-12-08T01:49:21;48.13;;;26.23;;
51558;SDS011;61650;48.882;2.092;2022-12-08T01:54:30;48.03;;;25.23;;
51558;SDS011;61650;48.882;2.092;2022-12-08T01:57:05;41.75;;;25.15;;
51558;SDS011;61650;48.882;2.092;2022-12-08T01:59:37;43.33;;;25.13;;
51558;SDS011;61650;48.882;2.092;2022-12-08T02:02:07;47.97;;;26.73;;
51558;SDS011;61650;48.882;2.092;2022-12-08T02:04:34;43.10;;;25.70;;
51558;SDS011;61650;48.882;2.092;2022-12-08T02:07:00;45.33;;;25.30;;
51558;SDS011;61650;48.882;2.092;2022-12-08T02:09:26;47.95;;;25.48;;
51558;SDS011;61650;48.882;2.092;2022-12-08T02:11:52;44.97;;;25.37;;
51558;SDS011;61650;48.882;2.092;2022-12-08T02:14:21;46.17;;;24.00;;
51558;SDS011;61650;48.882;2.092;2022-12-08T02:25:02;42.60;;;23.65;;
51558;SDS011;61650;48.882;2.092;2022-12-08T02:30:23;39.90;;;23.52;;
51558;SDS011;61650;48.882;2.092;2022-12-08T02:41:04;36.78;;;19.42;;
51558;SDS011;61650;48.882;2.092;2022-12-08T02:44:03;37.65;;;20.33;;
51558;SDS011;61650;48.882;2.092;2022-12-08T02:46:56;35.85;;;20.88;;
51558;SDS011;61650;48.882;2.092;2022-12-08T02:49:33;37.50;;;18.75;;
51558;SDS011;61650;48.882;2.092;2022-12-08T02:52:03;33.95;;;19.88;;
51558;SDS011;61650;48.882;2.092;2022-12-08T02:54:31;36.85;;;19.48;;
51558;SDS011;61650;48.882;2.092;2022-12-08T02:57:14;33.67;;;18.38;;
51558;SDS011;61650;48.882;2.092;2022-12-08T03:11:29;37.00;;;20.52;;
51558;SDS011;61650;48.882;2.092;2022-12-08T03:14:19;38.88;;;21.55;;
51558;SDS011;61650;48.882;2.092;2022-12-08T03:16:47;40.13;;;20.08;;
51558;SDS011;61650;48.882;2.092;2022-12-08T03:19:20;38.67;;;19.77;;
51558;SDS011;61650;48.882;2.092;2022-12-08T03:21:52;33.80;;;18.60;;
51558;SDS011;61650;48.882;2.092;2022-12-08T03:24:27;31.75;;;18.05;;
51558;SDS011;61650;48.882;2.092;2022-12-08T03:27:02;27.55;;;16.35;;
51558;SDS011;61650;48.882;2.092;2022-12-08T03:29:28;27.30;;;16.75;;
51558;SDS011;61650;48.882;2.092;2022-12-08T03:31:57;32.13;;;17.20;;
51558;SDS011;61650;48.882;2.092;2022-12-08T03:34:27;27.92;;;16.40;;
51558;SDS011;61650;48.882;2.092;2022-12-08T03:36:54;27.05;;;15.70;;
51558;SDS011;61650;48.882;2.092;2022-12-08T03:39:20;25.80;;;16.00;;
51558;SDS011;61650;48.882;2.092;2022-12-08T03:41:46;27.77;;;15.27;;
51558;SDS011;61650;48.882;2.092;2022-12-08T03:44:12;29.65;;;16.23;;
51558;SDS011;61650;48.882;2.092;2022-12-08T03:46:37;29.10;;;15.37;;
51558;SDS011;61650;48.882;2.092;2022-12-08T03:49:03;25.90;;;15.63;;
51558;SDS011;61650;48.882;2.092;2022-12-08T03:51:29;24.43;;;15.13;;
51558;SDS011;61650;48.882;2.092;2022-12-08T03:53:54;26.53;;;14.80;;
51558;SDS011;61650;48.882;2.092;2022-12-08T03:56:30;25.23;;;14.77;;
51558;SDS011;61650;48.882;2.092;2022-12-08T03:58:58;27.50;;;14.82;;
51558;SDS011;61650;48.882;2.092;2022-12-08T04:01:24;24.77;;;15.13;;
51558;SDS011;61650;48.882;2.092;2022-12-08T04:03:50;26.60;;;14.65;;
51558;SDS011;61650;48.882;2.092;2022-12-08T04:06:16;26.08;;;14.63;;
51558;SDS011;61650;48.882;2.092;2022-12-08T04:08:42;26.38;;;16.55;;
51558;SDS011;61650;48.882;2.092;2022-12-08T04:11:08;28.63;;;15.10;;
51558;SDS011;61650;48.882;2.092;2022-12-08T04:13:35;28.70;;;14.85;;
51558;SDS011;61650;48.882;2.092;2022-12-08T04:16:02;22.35;;;14.23;;
51558;SDS011;61650;48.882;2.092;2022-12-08T04:18:28;26.30;;;14.70;;
51558;SDS011;61650;48.882;2.092;2022-12-08T04:20:54;23.77;;;12.67;;
51558;SDS011;61650;48.882;2.092;2022-12-08T04:23:20;22.30;;;12.93;;
51558;SDS011;61650;48.882;2.092;2022-12-08T04:25:46;21.23;;;11.97;;
51558;SDS011;61650;48.882;2.092;2022-12-08T04:28:11;21.07;;;12.30;;
51558;SDS011;61650;48.882;2.092;2022-12-08T04:30:37;19.97;;;11.90;;
51558;SDS011;61650;48.882;2.092;2022-12-08T04:33:03;20.75;;;11.95;;
51558;SDS011;61650;48.882;2.092;2022-12-08T04:35:29;19.67;;;11.83;;
51558;SDS011;61650;48.882;2.092;2022-12-08T04:37:55;19.10;;;11.33;;
51558;SDS011;61650;48.882;2.092;2022-12-08T04:40:20;19.60;;;11.40;;
51558;SDS011;61650;48.882;2.092;2022-12-08T04:42:46;21.83;;;13.27;;
51558;SDS011;61650;48.882;2.092;2022-12-08T04:45:12;18.60;;;10.53;;
51558;SDS011;61650;48.882;2.092;2022-12-08T04:47:37;18.73;;;10.80;;
51558;SDS011;61650;48.882;2.092;2022-12-08T04:50:03;18.77;;;10.40;;
51558;SDS011;61650;48.882;2.092;2022-12-08T04:52:30;18.77;;;10.32;;
51558;SDS011;61650;48.882;2.092;2022-12-08T04:54:56;19.57;;;11.97;;
51558;SDS011;61650;48.882;2.092;2022-12-08T04:57:21;20.80;;;12.00;;
51558;SDS011;61650;48.882;2.092;2022-12-08T04:59:47;17.60;;;10.87;;
51558;SDS011;61650;48.882;2.092;2022-12-08T05:02:13;20.60;;;10.97;;
51558;SDS011;61650;48.882;2.092;2022-12-08T05:04:38;15.93;;;9.57;;
51558;SDS011;61650;48.882;2.092;2022-12-08T05:07:04;15.73;;;10.13;;
51558;SDS011;61650;48.882;2.092;2022-12-08T05:09:29;16.30;;;10.40;;
51558;SDS011;61650;48.882;2.092;2022-12-08T05:11:55;20.07;;;10.70;;
51558;SDS011;61650;48.882;2.092;2022-12-08T05:14:20;17.53;;;10.07;;
51558;SDS011;61650;48.882;2.092;2022-12-08T05:16:46;16.23;;;10.63;;
51558;SDS011;61650;48.882;2.092;2022-12-08T05:19:12;17.33;;;10.73;;
51558;SDS011;61650;48.882;2.092;2022-12-08T05:21:38;18.58;;;10.38;;
51558;SDS011;61650;48.882;2.092;2022-12-08T05:24:04;16.50;;;10.20;;
51558;SDS011;61650;48.882;2.092;2022-12-08T05:26:30;16.80;;;9.33;;
51558;SDS011;61650;48.882;2.092;2022-12-08T05:28:56;19.00;;;9.83;;
51558;SDS011;61650;48.882;2.092;2022-12-08T05:31:21;16.33;;;10.03;;
51558;SDS011;61650;48.882;2.092;2022-12-08T05:33:48;15.50;;;9.90;;
51558;SDS011;61650;48.882;2.092;2022-12-08T05:36:14;16.48;;;10.05;;
51558;SDS011;61650;48.882;2.092;2022-12-08T05:38:40;16.63;;;10.35;;
51558;SDS011;61650;48.882;2.092;2022-12-08T05:41:09;15.50;;;9.30;;
51558;SDS011;61650;48.882;2.092;2022-12-08T05:43:37;19.35;;;10.15;;
51558;SDS011;61650;48.882;2.092;2022-12-08T05:46:03;17.10;;;9.77;;
51558;SDS011;61650;48.882;2.092;2022-12-08T05:48:29;18.08;;;9.82;;
51558;SDS011;61650;48.882;2.092;2022-12-08T05:50:54;16.60;;;9.47;;
51558;SDS011;61650;48.882;2.092;2022-12-08T05:53:20;18.40;;;9.83;;
51558;SDS011;61650;48.882;2.092;2022-12-08T05:55:46;16.13;;;8.20;;
51558;SDS011;61650;48.882;2.092;2022-12-08T05:58:13;18.00;;;9.73;;
51558;SDS011;61650;48.882;2.092;2022-12-08T06:00:40;13.75;;;9.18;;
51558;SDS011;61650;48.882;2.092;2022-12-08T06:03:06;14.82;;;8.68;;
51558;SDS011;61650;48.882;2.092;2022-12-08T06:05:32;13.47;;;9.10;;
51558;SDS011;61650;48.882;2.092;2022-12-08T06:07:59;13.93;;;8.98;;
51558;SDS011;61650;48.882;2.092;2022-12-08T06:10:24;14.90;;;9.43;;
51558;SDS011;61650;48.882;2.092;2022-12-08T06:12:50;14.80;;;9.10;;
51558;SDS011;61650;48.882;2.092;2022-12-08T06:15:16;14.77;;;9.07;;
51558;SDS011;61650;48.882;2.092;2022-12-08T06:17:42;14.00;;;8.57;;
51558;SDS011;61650;48.882;2.092;2022-12-08T06:20:07;12.43;;;9.20;;
51558;SDS011;61650;48.882;2.092;2022-12-08T06:22:33;13.27;;;8.38;;
51558;SDS011;61650;48.882;2.092;2022-12-08T06:24:59;12.70;;;8.20;;
51558;SDS011;61650;48.882;2.092;2022-12-08T06:27:25;13.77;;;8.33;;
51558;SDS011;61650;48.882;2.092;2022-12-08T06:29:51;12.77;;;8.47;;
51558;SDS011;61650;48.882;2.092;2022-12-08T06:32:16;12.80;;;8.80;;
51558;SDS011;61650;48.882;2.092;2022-12-08T06:34:42;15.97;;;9.93;;
51558;SDS011;61650;48.882;2.092;2022-12-08T06:37:08;14.33;;;9.20;;
51558;SDS011;61650;48.882;2.092;2022-12-08T06:39:33;18.57;;;10.57;;
51558;SDS011;61650;48.882;2.092;2022-12-08T06:41:59;17.03;;;10.20;;
51558;SDS011;61650;48.882;2.092;2022-12-08T06:44:43;19.65;;;11.48;;
51558;SDS011;61650;48.882;2.092;2022-12-08T06:47:09;22.33;;;12.10;;
51558;SDS011;61650;48.882;2.092;2022-12-08T06:49:34;25.17;;;13.37;;
51558;SDS011;61650;48.882;2.092;2022-12-08T06:52:00;25.23;;;14.03;;
51558;SDS011;61650;48.882;2.092;2022-12-08T06:54:26;22.10;;;13.50;;
51558;SDS011;61650;48.882;2.092;2022-12-08T06:56:51;23.10;;;13.57;;
51558;SDS011;61650;48.882;2.092;2022-12-08T06:59:17;25.53;;;13.47;;
51558;SDS011;61650;48.882;2.092;2022-12-08T07:01:43;22.33;;;12.95;;
51558;SDS011;61650;48.882;2.092;2022-12-08T07:04:09;23.95;;;13.90;;
51558;SDS011;61650;48.882;2.092;2022-12-08T07:06:35;22.97;;;13.80;;
51558;SDS011;61650;48.882;2.092;2022-12-08T07:09:01;24.57;;;13.50;;
51558;SDS011;61650;48.882;2.092;2022-12-08T07:11:27;21.60;;;12.50;;
51558;SDS011;61650;48.882;2.092;2022-12-08T07:13:54;21.67;;;12.50;;
51558;SDS011;61650;48.882;2.092;2022-12-08T07:16:21;23.73;;;12.27;;
51558;SDS011;61650;48.882;2.092;2022-12-08T07:18:46;20.37;;;12.60;;
51558;SDS011;61650;48.882;2.092;2022-12-08T07:21:13;22.55;;;12.50;;
51558;SDS011;61650;48.882;2.092;2022-12-08T07:23:39;24.08;;;13.25;;
51558;SDS011;61650;48.882;2.092;2022-12-08T07:26:05;21.95;;;12.45;;
51558;SDS011;61650;48.882;2.092;2022-12-08T07:28:35;22.52;;;13.20;;
51558;SDS011;61650;48.882;2.092;2022-12-08T07:31:02;25.60;;;13.20;;
51558;SDS011;61650;48.882;2.092;2022-12-08T07:33:28;22.27;;;12.68;;
51558;SDS011;61650;48.882;2.092;2022-12-08T07:38:22;24.85;;;13.27;;
51558;SDS011;61650;48.882;2.092;2022-12-08T07:40:48;20.67;;;13.30;;
51558;SDS011;61650;48.882;2.092;2022-12-08T07:43:14;24.17;;;13.45;;
51558;SDS011;61650;48.882;2.092;2022-12-08T07:45:40;20.50;;;13.20;;
51558;SDS011;61650;48.882;2.092;2022-12-08T07:48:05;24.30;;;12.60;;
51558;SDS011;61650;48.882;2.092;2022-12-08T07:50:31;21.87;;;12.37;;
51558;SDS011;61650;48.882;2.092;2022-12-08T07:52:57;23.00;;;12.03;;
51558;SDS011;61650;48.882;2.092;2022-12-08T07:55:23;19.10;;;11.63;;
51558;SDS011;61650;48.882;2.092;2022-12-08T07:57:49;22.15;;;13.57;;
51558;SDS011;61650;48.882;2.092;2022-12-08T08:00:15;17.27;;;10.85;;
51558;SDS011;61650;48.882;2.092;2022-12-08T08:02:41;21.13;;;11.63;;
51558;SDS011;61650;48.882;2.092;2022-12-08T08:05:07;20.43;;;11.70;;
51558;SDS011;61650;48.882;2.092;2022-12-08T08:07:34;18.77;;;11.05;;
51558;SDS011;61650;48.882;2.092;2022-12-08T08:10:01;19.00;;;12.35;;
51558;SDS011;61650;48.882;2.092;2022-12-08T08:12:27;23.67;;;12.68;;
51558;SDS011;61650;48.882;2.092;2022-12-08T08:14:52;23.80;;;11.80;;
51558;SDS011;61650;48.882;2.092;2022-12-08T08:17:18;21.17;;;12.70;;
51558;SDS011;61650;48.882;2.092;2022-12-08T08:19:44;19.90;;;12.10;;
51558;SDS011;61650;48.882;2.092;2022-12-08T08:22:10;19.58;;;12.38;;
51558;SDS011;61650;48.882;2.092;2022-12-08T08:24:36;19.70;;;12.10;;
51558;SDS011;61650;48.882;2.092;2022-12-08T08:27:01;20.30;;;11.60;;
51558;SDS011;61650;48.882;2.092;2022-12-08T08:29:27;21.63;;;11.23;;
51558;SDS011;61650;48.882;2.092;2022-12-08T08:31:52;17.87;;;10.83;;
51558;SDS011;61650;48.882;2.092;2022-12-08T08:34:18;20.37;;;11.90;;
51558;SDS011;61650;48.882;2.092;2022-12-08T08:36:44;19.57;;;10.90;;
51558;SDS011;61650;48.882;2.092;2022-12-08T08:39:09;19.00;;;11.50;;
51558;SDS011;61650;48.882;2.092;2022-12-08T08:41:35;15.13;;;9.17;;
51558;SDS011;61650;48.882;2.092;2022-12-08T08:44:00;15.83;;;9.87;;
51558;SDS011;61650;48.882;2.092;2022-12-08T08:46:26;19.17;;;11.70;;
51558;SDS011;61650;48.882;2.092;2022-12-08T08:48:51;19.60;;;11.50;;
51558;SDS011;61650;48.882;2.092;2022-12-08T08:51:17;18.80;;;10.90;;
51558;SDS011;61650;48.882;2.092;2022-12-08T08:53:43;17.30;;;11.53;;
51558;SDS011;61650;48.882;2.092;2022-12-08T08:56:12;17.27;;;10.80;;
51558;SDS011;61650;48.882;2.092;2022-12-08T08:58:39;17.70;;;10.73;;
51558;SDS011;61650;48.882;2.092;2022-12-08T09:01:05;17.10;;;11.40;;
51558;SDS011;61650;48.882;2.092;2022-12-08T09:03:30;20.07;;;11.50;;
51558;SDS011;61650;48.882;2.092;2022-12-08T09:05:56;17.10;;;11.00;;
51558;SDS011;61650;48.882;2.092;2022-12-08T09:08:22;18.20;;;11.27;;
51558;SDS011;61650;48.882;2.092;2022-12-08T09:10:48;19.90;;;10.60;;
51558;SDS011;61650;48.882;2.092;2022-12-08T09:13:14;19.03;;;11.00;;
51558;SDS011;61650;48.882;2.092;2022-12-08T09:15:39;18.53;;;12.27;;
51558;SDS011;61650;48.882;2.092;2022-12-08T09:18:05;17.90;;;11.00;;
51558;SDS011;61650;48.882;2.092;2022-12-08T09:20:31;17.63;;;11.00;;
51558;SDS011;61650;48.882;2.092;2022-12-08T09:22:57;15.82;;;10.00;;
51558;SDS011;61650;48.882;2.092;2022-12-08T09:25:23;13.80;;;10.07;;
51558;SDS011;61650;48.882;2.092;2022-12-08T09:27:48;17.00;;;10.60;;
51558;SDS011;61650;48.882;2.092;2022-12-08T09:30:14;13.23;;;10.13;;
51558;SDS011;61650;48.882;2.092;2022-12-08T09:32:40;13.20;;;9.80;;
51558;SDS011;61650;48.882;2.092;2022-12-08T11:36:26;14.50;;;9.25;;
51558;SDS011;61650;48.882;2.092;2022-12-08T11:38:58;15.48;;;10.40;;
51558;SDS011;61650;48.882;2.092;2022-12-08T11:41:26;14.73;;;11.13;;
51558;SDS011;61650;48.882;2.092;2022-12-08T11:44:04;18.77;;;12.48;;
51558;SDS011;61650;48.882;2.092;2022-12-08T11:47:20;16.23;;;12.38;;
51558;SDS011;61650;48.882;2.092;2022-12-08T11:50:02;16.30;;;11.43;;
51558;SDS011;61650;48.882;2.092;2022-12-08T11:52:51;17.30;;;11.60;;
51558;SDS011;61650;48.882;2.092;2022-12-08T11:55:25;17.00;;;13.15;;
51558;SDS011;61650;48.882;2.092;2022-12-08T11:57:56;14.50;;;10.55;;
51558;SDS011;61650;48.882;2.092;2022-12-08T12:00:33;18.73;;;13.15;;
51558;SDS011;61650;48.882;2.092;2022-12-08T12:03:02;15.77;;;11.30;;
51558;SDS011;61650;48.882;2.092;2022-12-08T12:08:26;15.60;;;11.40;;
51558;SDS011;61650;48.882;2.092;2022-12-08T12:14:15;17.77;;;11.55;;
51558;SDS011;61650;48.882;2.092;2022-12-08T12:16:56;29.13;;;20.20;;
51558;SDS011;61650;48.882;2.092;2022-12-08T12:19:32;18.15;;;13.20;;
51558;SDS011;61650;48.882;2.092;2022-12-08T12:22:11;20.50;;;12.80;;
51558;SDS011;61650;48.882;2.092;2022-12-08T12:24:40;18.38;;;12.25;;
51558;SDS011;61650;48.882;2.092;2022-12-08T12:29:37;19.33;;;12.63;;
51558;SDS011;61650;48.882;2.092;2022-12-08T12:32:16;19.85;;;13.70;;
51558;SDS011;61650;48.882;2.092;2022-12-08T12:37:17;14.18;;;10.88;;
51558;SDS011;61650;48.882;2.092;2022-12-08T12:39:54;18.05;;;10.98;;
51558;SDS011;61650;48.882;2.092;2022-12-08T12:42:46;19.67;;;11.73;;
51558;SDS011;61650;48.882;2.092;2022-12-08T12:47:48;20.03;;;14.40;;
51558;SDS011;61650;48.882;2.092;2022-12-08T12:52:58;14.18;;;10.80;;
51558;SDS011;61650;48.882;2.092;2022-12-08T12:55:27;16.40;;;12.25;;
51558;SDS011;61650;48.882;2.092;2022-12-08T12:58:18;17.08;;;11.40;;
51558;SDS011;61650;48.882;2.092;2022-12-08T13:03:41;16.27;;;11.13;;
51558;SDS011;61650;48.882;2.092;2022-12-08T13:06:22;16.77;;;13.30;;
51558;SDS011;61650;48.882;2.092;2022-12-08T13:08:56;16.83;;;11.07;;
51558;SDS011;61650;48.882;2.092;2022-12-08T13:11:23;16.27;;;12.20;;
51558;SDS011;61650;48.882;2.092;2022-12-08T13:14:02;16.40;;;12.50;;
51558;SDS011;61650;48.882;2.092;2022-12-08T13:16:34;14.02;;;10.98;;
51558;SDS011;61650;48.882;2.092;2022-12-08T13:19:03;22.25;;;13.98;;
51558;SDS011;61650;48.882;2.092;2022-12-08T13:21:36;17.50;;;13.13;;
51558;SDS011;61650;48.882;2.092;2022-12-08T13:26:42;15.88;;;11.88;;
51558;SDS011;61650;48.882;2.092;2022-12-08T13:29:13;16.20;;;12.00;;
51558;SDS011;61650;48.882;2.092;2022-12-08T13:34:19;14.63;;;10.93;;
51558;SDS011;61650;48.882;2.092;2022-12-08T13:37:00;17.58;;;10.75;;
51558;SDS011;61650;48.882;2.092;2022-12-08T13:44:51;18.13;;;13.48;;
51558;SDS011;61650;48.882;2.092;2022-12-08T13:47:47;15.55;;;11.10;;
51558;SDS011;61650;48.882;2.092;2022-12-08T13:50:20;12.05;;;9.90;;
51558;SDS011;61650;48.882;2.092;2022-12-08T13:52:59;14.95;;;10.70;;
51558;SDS011;61650;48.882;2.092;2022-12-08T13:55:33;17.33;;;13.07;;
51558;SDS011;61650;48.882;2.092;2022-12-08T13:58:04;18.20;;;13.57;;
51558;SDS011;61650;48.882;2.092;2022-12-08T14:00:30;17.17;;;13.20;;
51558;SDS011;61650;48.882;2.092;2022-12-08T14:02:56;17.55;;;11.45;;
51558;SDS011;61650;48.882;2.092;2022-12-08T14:05:24;14.20;;;10.55;;
51558;SDS011;61650;48.882;2.092;2022-12-08T14:07:53;14.52;;;10.57;;
51558;SDS011;61650;48.882;2.092;2022-12-08T14:10:27;13.23;;;10.70;;
51558;SDS011;61650;48.882;2.092;2022-12-08T14:12:56;13.90;;;10.20;;
51558;SDS011;61650;48.882;2.092;2022-12-08T14:15:31;14.07;;;11.55;;
51558;SDS011;61650;48.882;2.092;2022-12-08T14:17:57;15.15;;;11.38;;
51558;SDS011;61650;48.882;2.092;2022-12-08T14:20:32;15.43;;;10.70;;
51558;SDS011;61650;48.882;2.092;2022-12-08T14:22:59;15.50;;;10.05;;
51558;SDS011;61650;48.882;2.092;2022-12-08T14:25:30;15.95;;;10.85;;
51558;SDS011;61650;48.882;2.092;2022-12-08T14:28:00;13.93;;;10.40;;
51558;SDS011;61650;48.882;2.092;2022-12-08T14:30:27;15.23;;;11.50;;
51558;SDS011;61650;48.882;2.092;2022-12-08T14:32:57;17.67;;;11.93;;
51558;SDS011;61650;48.882;2.092;2022-12-08T14:35:26;15.07;;;11.05;;
51558;SDS011;61650;48.882;2.092;2022-12-08T14:37:54;19.20;;;12.45;;
51558;SDS011;61650;48.882;2.092;2022-12-08T14:40:31;16.23;;;11.77;;
51558;SDS011;61650;48.882;2.092;2022-12-08T14:45:32;17.10;;;11.82;;
51558;SDS011;61650;48.882;2.092;2022-12-08T14:53:35;16.80;;;11.87;;
51558;SDS011;61650;48.882;2.092;2022-12-08T14:56:25;17.77;;;12.15;;
51558;SDS011;61650;48.882;2.092;2022-12-08T15:02:09;18.90;;;12.20;;
51558;SDS011;61650;48.882;2.092;2022-12-08T15:04:37;27.77;;;19.05;;
51558;SDS011;61650;48.882;2.092;2022-12-08T15:07:12;24.58;;;18.67;;
51558;SDS011;61650;48.882;2.092;2022-12-08T15:09:39;24.65;;;19.88;;
51558;SDS011;61650;48.882;2.092;2022-12-08T15:14:42;17.80;;;12.05;;
51558;SDS011;61650;48.882;2.092;2022-12-08T15:17:41;14.45;;;10.85;;
51558;SDS011;61650;48.882;2.092;2022-12-08T15:23:18;18.17;;;13.52;;
51558;SDS011;61650;48.882;2.092;2022-12-08T15:25:46;17.88;;;12.48;;
51558;SDS011;61650;48.882;2.092;2022-12-08T15:28:13;16.30;;;11.43;;
51558;SDS011;61650;48.882;2.092;2022-12-08T15:30:44;17.65;;;11.35;;
51558;SDS011;61650;48.882;2.092;2022-12-08T15:33:10;18.63;;;12.40;;
51558;SDS011;61650;48.882;2.092;2022-12-08T15:35:36;16.50;;;12.50;;
51558;SDS011;61650;48.882;2.092;2022-12-08T15:38:02;14.37;;;11.80;;
51558;SDS011;61650;48.882;2.092;2022-12-08T15:40:30;15.37;;;11.33;;
51558;SDS011;61650;48.882;2.092;2022-12-08T15:42:56;18.70;;;13.30;;
51558;SDS011;61650;48.882;2.092;2022-12-08T15:45:22;18.00;;;13.10;;
51558;SDS011;61650;48.882;2.092;2022-12-08T15:47:52;16.30;;;11.88;;
51558;SDS011;61650;48.882;2.092;2022-12-08T15:50:19;19.53;;;12.20;;
51558;SDS011;61650;48.882;2.092;2022-12-08T15:52:46;16.10;;;11.55;;
51558;SDS011;61650;48.882;2.092;2022-12-08T15:55:13;16.30;;;12.05;;
51558;SDS011;61650;48.882;2.092;2022-12-08T15:57:40;17.85;;;11.88;;
51558;SDS011;61650;48.882;2.092;2022-12-08T16:02:50;18.65;;;13.70;;
51558;SDS011;61650;48.882;2.092;2022-12-08T16:05:16;22.10;;;13.50;;
51558;SDS011;61650;48.882;2.092;2022-12-08T16:07:41;17.00;;;11.60;;
51558;SDS011;61650;48.882;2.092;2022-12-08T16:10:15;18.13;;;11.90;;
51558;SDS011;61650;48.882;2.092;2022-12-08T16:12:42;16.95;;;11.43;;
51558;SDS011;61650;48.882;2.092;2022-12-08T16:15:27;19.58;;;13.20;;
51558;SDS011;61650;48.882;2.092;2022-12-08T16:17:53;19.15;;;14.50;;
51558;SDS011;61650;48.882;2.092;2022-12-08T16:20:21;20.17;;;14.52;;
51558;SDS011;61650;48.882;2.092;2022-12-08T16:22:46;20.38;;;13.60;;
51558;SDS011;61650;48.882;2.092;2022-12-08T16:25:13;21.05;;;12.57;;
51558;SDS011;61650;48.882;2.092;2022-12-08T16:27:39;19.30;;;13.40;;
51558;SDS011;61650;48.882;2.092;2022-12-08T16:30:06;20.23;;;13.73;;
51558;SDS011;61650;48.882;2.092;2022-12-08T16:32:36;18.60;;;13.45;;
51558;SDS011;61650;48.882;2.092;2022-12-08T16:35:01;18.87;;;14.00;;
51558;SDS011;61650;48.882;2.092;2022-12-08T16:37:27;16.50;;;12.70;;
51558;SDS011;61650;48.882;2.092;2022-12-08T16:39:54;18.23;;;14.27;;
51558;SDS011;61650;48.882;2.092;2022-12-08T16:42:28;19.52;;;13.52;;
51558;SDS011;61650;48.882;2.092;2022-12-08T16:45:07;19.38;;;14.48;;
51558;SDS011;61650;48.882;2.092;2022-12-08T16:47:38;18.35;;;13.55;;
51558;SDS011;61650;48.882;2.092;2022-12-08T16:50:13;23.45;;;15.60;;
51558;SDS011;61650;48.882;2.092;2022-12-08T16:52:40;24.35;;;14.82;;
51558;SDS011;61650;48.882;2.092;2022-12-08T16:55:10;25.83;;;18.27;;
51558;SDS011;61650;48.882;2.092;2022-12-08T16:57:38;24.27;;;15.73;;
51558;SDS011;61650;48.882;2.092;2022-12-08T17:00:05;21.05;;;14.77;;
51558;SDS011;61650;48.882;2.092;2022-12-08T17:02:35;21.63;;;14.73;;
51558;SDS011;61650;48.882;2.092;2022-12-08T17:05:00;26.70;;;17.60;;
51558;SDS011;61650;48.882;2.092;2022-12-08T17:07:26;24.03;;;17.60;;
51558;SDS011;61650;48.882;2.092;2022-12-08T17:09:51;27.23;;;17.60;;
51558;SDS011;61650;48.882;2.092;2022-12-08T17:12:17;24.90;;;16.10;;
51558;SDS011;61650;48.882;2.092;2022-12-08T17:14:43;24.07;;;15.93;;
51558;SDS011;61650;48.882;2.092;2022-12-08T17:17:08;24.53;;;16.77;;
51558;SDS011;61650;48.882;2.092;2022-12-08T17:19:34;23.33;;;16.00;;
51558;SDS011;61650;48.882;2.092;2022-12-08T17:22:00;27.00;;;17.10;;
51558;SDS011;61650;48.882;2.092;2022-12-08T17:24:26;26.35;;;16.92;;
51558;SDS011;61650;48.882;2.092;2022-12-08T17:26:53;25.98;;;15.90;;
51558;SDS011;61650;48.882;2.092;2022-12-08T17:29:20;23.75;;;15.85;;
51558;SDS011;61650;48.882;2.092;2022-12-08T17:31:46;22.90;;;15.50;;
51558;SDS011;61650;48.882;2.092;2022-12-08T17:34:12;28.60;;;16.77;;
51558;SDS011;61650;48.882;2.092;2022-12-08T17:36:37;27.63;;;15.97;;
51558;SDS011;61650;48.882;2.092;2022-12-08T17:39:03;24.63;;;17.03;;
51558;SDS011;61650;48.882;2.092;2022-12-08T17:41:29;31.20;;;18.17;;
51558;SDS011;61650;48.882;2.092;2022-12-08T17:43:55;27.17;;;17.07;;
51558;SDS011;61650;48.882;2.092;2022-12-08T17:46:21;25.88;;;16.83;;
51558;SDS011;61650;48.882;2.092;2022-12-08T17:48:47;26.15;;;18.10;;
51558;SDS011;61650;48.882;2.092;2022-12-08T17:51:13;27.53;;;18.43;;
51558;SDS011;61650;48.882;2.092;2022-12-08T17:53:39;25.58;;;17.70;;
51558;SDS011;61650;48.882;2.092;2022-12-08T17:56:06;28.80;;;18.57;;
51558;SDS011;61650;48.882;2.092;2022-12-08T17:58:38;28.70;;;17.70;;
51558;SDS011;61650;48.882;2.092;2022-12-08T18:01:07;28.20;;;17.80;;
51558;SDS011;61650;48.882;2.092;2022-12-08T18:03:34;29.35;;;18.17;;